Time;durP1;ratioP1;P1;durP2;ratioP2;P2;SDS_P1;SDS_P2;PMS_P1;PMS_P2;Temp;Humidity;BMP_temperature;BMP_pressure;BME280_temperature;BME280_humidity;BME280_pressure;Samples;Min_cycle;Max_cycle;Signal;HPM_P1;HPM_P2
2022/03/25 00:03:19;;;;;;;45.10;40.23;;;;;;;;;;6160636;28;20233;-72
2022/03/25 00:06:40;;;;;;;44.60;39.73;;;;;;;;;;6158003;28;20632;-72
2022/03/25 00:10:01;;;;;;;48.90;40.73;;;;;;;;;;6161793;28;20233;-71
2022/03/25 00:13:23;;;;;;;43.37;38.80;;;;;;;;;;6162160;28;20239;-71
2022/03/25 00:16:44;;;;;;;44.40;39.70;;;;;;;;;;6165582;28;20231;-72
2022/03/25 00:20:08;;;;;;;41.30;36.90;;;;;;;;;;6161367;28;20226;-72
2022/03/25 00:23:29;;;;;;;42.03;37.73;;;;;;;;;;6160171;28;20258;-72
2022/03/25 00:26:50;;;;;;;46.87;41.83;;;;;;;;;;6160925;28;20285;-73
2022/03/25 00:30:13;;;;;;;43.97;39.37;;;;;;;;;;6160920;28;20226;-72
2022/03/25 00:33:36;;;;;;;44.40;39.80;;;;;;;;;;6156941;28;20750;-73
2022/03/25 00:36:59;;;;;;;45.67;40.93;;;;;;;;;;6159964;28;20224;-71
2022/03/25 00:40:20;;;;;;;44.80;40.00;;;;;;;;;;6161558;28;20254;-73
2022/03/25 00:43:42;;;;;;;43.23;38.83;;;;;;;;;;6144639;28;20230;-74
2022/03/25 00:47:03;;;;;;;42.37;38.07;;;;;;;;;;6158694;28;20684;-73
2022/03/25 00:50:24;;;;;;;41.33;37.20;;;;;;;;;;6151068;28;20238;-72
2022/03/25 00:53:47;;;;;;;44.37;39.77;;;;;;;;;;6159906;28;20226;-72
2022/03/25 00:57:08;;;;;;;44.87;39.97;;;;;;;;;;6158501;28;20231;-72
2022/03/25 01:00:29;;;;;;;42.30;38.00;;;;;;;;;;6135039;28;20234;-73
2022/03/25 01:03:50;;;;;;;45.10;40.30;;;;;;;;;;6147611;28;20245;-74
2022/03/25 01:07:12;;;;;;;46.23;41.60;;;;;;;;;;6144371;28;20242;-74
2022/03/25 01:10:35;;;;;;;43.97;39.33;;;;;;;;;;6151511;28;20321;-73
2022/03/25 01:13:58;;;;;;;45.00;40.23;;;;;;;;;;6160464;28;21036;-74
2022/03/25 01:17:19;;;;;;;46.80;41.70;;;;;;;;;;6132806;28;20235;-73
2022/03/25 01:20:41;;;;;;;48.17;41.00;;;;;;;;;;6160013;28;20234;-71
2022/03/25 01:24:04;;;;;;;45.90;41.00;;;;;;;;;;6160433;28;20604;-73
2022/03/25 01:27:26;;;;;;;45.57;40.63;;;;;;;;;;6146112;28;20238;-73
2022/03/25 01:30:49;;;;;;;45.30;40.47;;;;;;;;;;6140149;28;20226;-73
2022/03/25 01:34:10;;;;;;;49.77;42.60;;;;;;;;;;6140421;28;20231;-72
2022/03/25 01:37:31;;;;;;;44.70;40.07;;;;;;;;;;6149329;28;20230;-72
2022/03/25 01:40:52;;;;;;;47.57;39.70;;;;;;;;;;6152058;28;20258;-74
2022/03/25 01:44:15;;;;;;;45.40;40.70;;;;;;;;;;6154606;28;20230;-74
2022/03/25 01:47:39;;;;;;;42.67;38.17;;;;;;;;;;6154106;28;20242;-72
2022/03/25 01:51:02;;;;;;;45.57;39.93;;;;;;;;;;6154811;28;20222;-74
2022/03/25 01:54:25;;;;;;;47.80;42.70;;;;;;;;;;6139654;28;20230;-73
2022/03/25 01:57:46;;;;;;;46.13;40.63;;;;;;;;;;6150843;28;20227;-73
2022/03/25 02:01:09;;;;;;;42.90;38.47;;;;;;;;;;6139591;28;20238;-73
2022/03/25 02:04:30;;;;;;;46.00;41.00;;;;;;;;;;6138455;28;20242;-73
2022/03/25 02:07:51;;;;;;;47.57;39.63;;;;;;;;;;6152483;28;20235;-72
2022/03/25 02:11:12;;;;;;;46.13;41.17;;;;;;;;;;6154402;28;20238;-72
2022/03/25 02:14:33;;;;;;;45.27;38.37;;;;;;;;;;6138717;28;20258;-72
2022/03/25 02:17:57;;;;;;;44.97;40.37;;;;;;;;;;6145584;28;20305;-74
2022/03/25 02:21:18;;;;;;;45.50;40.70;;;;;;;;;;6152099;28;20238;-73
2022/03/25 02:24:40;;;;;;;44.33;39.53;;;;;;;;;;6148494;28;20239;-71
2022/03/25 02:28:04;;;;;;;44.03;38.93;;;;;;;;;;6138517;28;20333;-71
2022/03/25 02:31:28;;;;;;;44.97;40.27;;;;;;;;;;6141262;28;20680;-72
2022/03/25 02:34:49;;;;;;;44.17;39.77;;;;;;;;;;6150466;28;20230;-74
2022/03/25 02:38:11;;;;;;;45.53;40.10;;;;;;;;;;6146192;28;20250;-72
2022/03/25 02:41:34;;;;;;;47.70;42.10;;;;;;;;;;6155763;28;20230;-73
2022/03/25 02:44:55;;;;;;;47.63;39.77;;;;;;;;;;6157139;28;20306;-73
2022/03/25 02:48:15;;;;;;;43.13;38.73;;;;;;;;;;6157924;28;20246;-72
2022/03/25 02:51:36;;;;;;;43.80;38.77;;;;;;;;;;6157394;28;20329;-74
2022/03/25 02:54:57;;;;;;;46.63;41.93;;;;;;;;;;6153462;28;20231;-73
2022/03/25 02:58:20;;;;;;;45.40;40.70;;;;;;;;;;6155305;28;20226;-73
2022/03/25 03:01:41;;;;;;;46.17;39.97;;;;;;;;;;6154762;28;20238;-72
2022/03/25 03:05:02;;;;;;;46.20;41.37;;;;;;;;;;6153390;28;20614;-72
2022/03/25 03:08:23;;;;;;;45.37;40.40;;;;;;;;;;6157691;28;20231;-72
2022/03/25 03:11:44;;;;;;;46.03;40.83;;;;;;;;;;6158738;28;20368;-72
2022/03/25 03:15:09;;;;;;;51.70;42.97;;;;;;;;;;6153782;28;20246;-71
2022/03/25 03:18:30;;;;;;;45.57;40.67;;;;;;;;;;6159651;28;20234;-72
2022/03/25 03:21:53;;;;;;;46.77;40.67;;;;;;;;;;6155748;28;20227;-73
2022/03/25 03:25:14;;;;;;;48.87;41.23;;;;;;;;;;6153155;28;20230;-73
2022/03/25 03:28:35;;;;;;;46.33;39.73;;;;;;;;;;6155536;28;20634;-71
2022/03/25 03:31:57;;;;;;;45.90;41.03;;;;;;;;;;6152761;28;20255;-72
2022/03/25 03:35:18;;;;;;;46.07;41.03;;;;;;;;;;6154099;28;20258;-72
2022/03/25 03:38:39;;;;;;;48.57;42.13;;;;;;;;;;6153277;28;20226;-72
2022/03/25 03:42:02;;;;;;;43.63;38.93;;;;;;;;;;6129031;28;20238;-72
2022/03/25 03:45:23;;;;;;;46.40;38.53;;;;;;;;;;6152103;28;20226;-72
2022/03/25 03:48:45;;;;;;;48.90;39.83;;;;;;;;;;6157957;28;20624;-71
2022/03/25 03:52:06;;;;;;;47.07;42.03;;;;;;;;;;6157276;28;20230;-72
2022/03/25 03:55:27;;;;;;;47.30;42.23;;;;;;;;;;6151033;28;20246;-70
2022/03/25 03:58:48;;;;;;;50.10;44.70;;;;;;;;;;6152538;28;20258;-72
2022/03/25 04:02:10;;;;;;;47.27;39.10;;;;;;;;;;6156327;28;20313;-73
2022/03/25 04:05:32;;;;;;;48.40;43.17;;;;;;;;;;6158563;28;20250;-72
2022/03/25 04:08:53;;;;;;;46.50;41.47;;;;;;;;;;6152461;28;20357;-72
2022/03/25 04:12:14;;;;;;;44.73;40.00;;;;;;;;;;6153983;28;20227;-72
2022/03/25 04:15:35;;;;;;;47.10;42.17;;;;;;;;;;6153694;28;20243;-72
2022/03/25 04:18:57;;;;;;;51.63;42.33;;;;;;;;;;6157723;28;20345;-71
2022/03/25 04:22:19;;;;;;;43.53;38.87;;;;;;;;;;6157398;28;20270;-72
2022/03/25 04:25:40;;;;;;;47.50;41.23;;;;;;;;;;6149277;28;20227;-72
2022/03/25 04:29:01;;;;;;;49.33;44.10;;;;;;;;;;6149091;28;20223;-73
2022/03/25 04:32:22;;;;;;;45.67;40.83;;;;;;;;;;6151540;28;20262;-73
2022/03/25 04:35:43;;;;;;;49.57;42.03;;;;;;;;;;6156337;28;20223;-73
2022/03/25 04:39:05;;;;;;;45.57;40.60;;;;;;;;;;6155461;28;20231;-72
2022/03/25 04:42:26;;;;;;;47.93;41.10;;;;;;;;;;6124897;28;20286;-73
2022/03/25 04:45:47;;;;;;;45.97;41.07;;;;;;;;;;6135029;28;20235;-73
2022/03/25 04:49:09;;;;;;;44.83;40.20;;;;;;;;;;6157419;28;20222;-73
2022/03/25 04:52:29;;;;;;;47.40;42.33;;;;;;;;;;6159782;28;20798;-73
2022/03/25 04:55:52;;;;;;;43.37;38.73;;;;;;;;;;6149526;28;20314;-71
2022/03/25 04:59:13;;;;;;;43.20;38.43;;;;;;;;;;6150945;28;20234;-72
2022/03/25 05:02:34;;;;;;;44.60;39.90;;;;;;;;;;6152847;28;20250;-73
2022/03/25 05:05:55;;;;;;;45.53;40.67;;;;;;;;;;6128471;28;20235;-72
2022/03/25 05:09:17;;;;;;;46.13;40.57;;;;;;;;;;6154378;28;20227;-73
2022/03/25 05:12:39;;;;;;;56.03;50.47;;;;;;;;;;6155955;28;20226;-73
2022/03/25 05:16:00;;;;;;;54.20;48.20;;;;;;;;;;6149773;28;20230;-73
2022/03/25 05:19:21;;;;;;;50.63;44.43;;;;;;;;;;6156355;28;20238;-72
2022/03/25 05:22:42;;;;;;;51.57;41.87;;;;;;;;;;6155687;28;20238;-70
2022/03/25 05:26:03;;;;;;;48.00;41.97;;;;;;;;;;6148011;28;20591;-71
2022/03/25 05:29:25;;;;;;;63.60;55.20;;;;;;;;;;6152291;28;20258;-73
2022/03/25 05:32:46;;;;;;;55.20;46.57;;;;;;;;;;6156288;28;20238;-72
2022/03/25 05:36:07;;;;;;;51.87;44.17;;;;;;;;;;6152737;28;20238;-73
2022/03/25 05:39:27;;;;;;;49.70;41.43;;;;;;;;;;6154230;28;20917;-73
2022/03/25 05:42:49;;;;;;;49.77;43.80;;;;;;;;;;6154683;28;20345;-73
2022/03/25 05:46:11;;;;;;;46.93;41.97;;;;;;;;;;6155704;28;20238;-74
2022/03/25 05:49:32;;;;;;;52.70;43.77;;;;;;;;;;6144526;28;20237;-73
2022/03/25 05:52:52;;;;;;;48.50;43.27;;;;;;;;;;6155840;28;20258;-72
2022/03/25 05:56:16;;;;;;;48.13;43.00;;;;;;;;;;6152592;28;20238;-73
2022/03/25 05:59:37;;;;;;;48.80;43.37;;;;;;;;;;6152902;28;20231;-71
2022/03/25 06:02:59;;;;;;;52.83;46.10;;;;;;;;;;6161065;28;20226;-73
2022/03/25 06:06:20;;;;;;;54.23;46.33;;;;;;;;;;6158429;28;20234;-73
2022/03/25 06:09:40;;;;;;;56.67;45.80;;;;;;;;;;6151421;28;20601;-73
2022/03/25 06:13:02;;;;;;;51.70;44.23;;;;;;;;;;6160376;28;20258;-73
2022/03/25 06:16:22;;;;;;;57.07;48.63;;;;;;;;;;6145970;28;20234;-72
2022/03/25 06:19:45;;;;;;;52.47;42.83;;;;;;;;;;6150378;28;20242;-73
2022/03/25 06:23:06;;;;;;;52.47;45.63;;;;;;;;;;6158155;28;20222;-72
2022/03/25 06:26:26;;;;;;;56.53;47.07;;;;;;;;;;6160772;28;21081;-73
2022/03/25 06:29:47;;;;;;;57.33;51.13;;;;;;;;;;6151060;28;20222;-73
2022/03/25 06:33:10;;;;;;;59.43;52.37;;;;;;;;;;6163215;28;20222;-72
2022/03/25 06:36:32;;;;;;;60.17;52.43;;;;;;;;;;6164894;28;20229;-73
2022/03/25 06:39:55;;;;;;;62.33;54.90;;;;;;;;;;6154816;28;20664;-73
2022/03/25 06:43:16;;;;;;;65.97;55.20;;;;;;;;;;6163095;28;20234;-72
2022/03/25 06:46:37;;;;;;;63.43;55.37;;;;;;;;;;6155929;28;20531;-71
2022/03/25 06:49:58;;;;;;;62.10;55.27;;;;;;;;;;6155141;28;20246;-72
2022/03/25 06:53:22;;;;;;;61.10;54.47;;;;;;;;;;6161405;28;20572;-72
2022/03/25 06:56:45;;;;;;;62.53;53.77;;;;;;;;;;6147418;28;20604;-72
2022/03/25 07:00:10;;;;;;;66.20;56.37;;;;;;;;;;6155891;28;20253;-72
2022/03/25 07:03:32;;;;;;;65.73;56.60;;;;;;;;;;6149400;28;21124;-71
2022/03/25 07:06:55;;;;;;;64.10;53.63;;;;;;;;;;6148619;28;20235;-73
2022/03/25 07:10:22;;;;;;;65.10;57.33;;;;;;;;;;6148133;28;20230;-72
2022/03/25 07:13:46;;;;;;;66.63;57.00;;;;;;;;;;6144248;28;20250;-73
2022/03/25 07:17:07;;;;;;;64.80;55.37;;;;;;;;;;6148500;28;20243;-73
2022/03/25 07:20:27;;;;;;;77.67;58.63;;;;;;;;;;6145712;28;20271;-76
2022/03/25 07:23:48;;;;;;;71.03;58.47;;;;;;;;;;6151830;28;20257;-74
2022/03/25 07:27:10;;;;;;;70.20;57.90;;;;;;;;;;6145075;28;20235;-73
2022/03/25 07:30:31;;;;;;;60.97;53.67;;;;;;;;;;6156265;28;20226;-72
2022/03/25 07:33:52;;;;;;;68.90;58.20;;;;;;;;;;6157357;28;20235;-71
2022/03/25 07:37:13;;;;;;;65.83;58.40;;;;;;;;;;6142770;28;20223;-75
2022/03/25 07:40:34;;;;;;;69.40;58.47;;;;;;;;;;6156529;28;20230;-73
2022/03/25 07:43:56;;;;;;;66.40;57.90;;;;;;;;;;6151305;28;20667;-72
2022/03/25 07:47:17;;;;;;;67.97;57.80;;;;;;;;;;6159624;28;20238;-70
2022/03/25 07:50:38;;;;;;;70.90;58.93;;;;;;;;;;6158579;28;20235;-71
2022/03/25 07:53:59;;;;;;;69.90;59.43;;;;;;;;;;6161066;28;20793;-71
2022/03/25 07:57:20;;;;;;;65.57;56.80;;;;;;;;;;6161921;28;20239;-71
2022/03/25 08:00:44;;;;;;;65.33;57.87;;;;;;;;;;6165482;28;20306;-70
2022/03/25 08:04:06;;;;;;;70.13;57.10;;;;;;;;;;6165571;28;20238;-71
2022/03/25 08:07:27;;;;;;;66.43;58.80;;;;;;;;;;6154223;28;20227;-70
2022/03/25 08:10:48;;;;;;;64.83;57.70;;;;;;;;;;6167448;28;20515;-71
2022/03/25 08:14:09;;;;;;;66.07;54.43;;;;;;;;;;6164645;28;20226;-70
2022/03/25 08:17:31;;;;;;;66.23;57.93;;;;;;;;;;6161630;28;20235;-72
2022/03/25 08:20:53;;;;;;;62.77;56.07;;;;;;;;;;6161606;28;20235;-72
2022/03/25 08:27:58;;;;;;;65.83;56.60;;;;;;;;;;6160351;28;20280;-73
2022/03/25 08:31:19;;;;;;;59.97;51.20;;;;;;;;;;6170423;28;20242;-71
2022/03/25 08:34:41;;;;;;;60.30;52.37;;;;;;;;;;6162949;28;20226;-72
2022/03/25 08:38:02;;;;;;;51.90;45.73;;;;;;;;;;6144665;28;20314;-72
2022/03/25 08:41:23;;;;;;;59.13;49.60;;;;;;;;;;6170501;28;20230;-72
2022/03/25 08:44:44;;;;;;;53.57;47.50;;;;;;;;;;6166611;28;20223;-72
2022/03/25 08:48:05;;;;;;;54.50;48.27;;;;;;;;;;6149193;28;20227;-72
2022/03/25 08:51:29;;;;;;;53.13;46.03;;;;;;;;;;6139589;28;20234;-73
2022/03/25 08:54:51;;;;;;;52.57;45.40;;;;;;;;;;6155413;28;20241;-72
2022/03/25 08:58:12;;;;;;;56.47;47.23;;;;;;;;;;6167775;28;20238;-72
2022/03/25 09:01:33;;;;;;;54.72;48.90;;;;;;;;;;6160336;28;20762;-73
2022/03/25 09:04:54;;;;;;;49.30;43.93;;;;;;;;;;6153285;28;20230;-72
2022/03/25 09:08:17;;;;;;;49.37;43.97;;;;;;;;;;6147585;28;20787;-73
2022/03/25 09:11:38;;;;;;;45.63;40.30;;;;;;;;;;6153184;28;20226;-74
2022/03/25 09:15:00;;;;;;;49.80;44.57;;;;;;;;;;6146602;28;20246;-74
2022/03/25 09:18:20;;;;;;;55.93;44.23;;;;;;;;;;6156077;28;20226;-73
2022/03/25 09:21:41;;;;;;;47.77;41.43;;;;;;;;;;6153025;28;20227;-74
2022/03/25 09:25:04;;;;;;;55.23;43.83;;;;;;;;;;6154364;28;20243;-72
2022/03/25 09:28:25;;;;;;;51.00;40.90;;;;;;;;;;6160151;28;20301;-75
2022/03/25 09:31:46;;;;;;;47.67;42.20;;;;;;;;;;6153186;28;20234;-73
2022/03/25 09:35:11;;;;;;;49.43;39.77;;;;;;;;;;6129046;28;20282;-73
2022/03/25 09:38:32;;;;;;;47.57;39.13;;;;;;;;;;6151089;28;20254;-74
2022/03/25 09:41:54;;;;;;;44.20;38.30;;;;;;;;;;6156905;28;20254;-73
2022/03/25 09:45:16;;;;;;;50.60;39.00;;;;;;;;;;6157290;28;20226;-73
2022/03/25 09:48:37;;;;;;;42.63;38.07;;;;;;;;;;6152704;28;21830;-73
2022/03/25 09:51:59;;;;;;;40.87;34.73;;;;;;;;;;6157251;28;20239;-74
2022/03/25 09:55:20;;;;;;;52.67;42.57;;;;;;;;;;6150346;28;20246;-73
2022/03/25 09:58:42;;;;;;;43.40;38.47;;;;;;;;;;6154105;28;20226;-74
2022/03/25 10:02:04;;;;;;;48.83;35.93;;;;;;;;;;6140013;28;20765;-73
2022/03/25 10:05:25;;;;;;;41.33;33.63;;;;;;;;;;6151330;28;20231;-73
2022/03/25 10:08:47;;;;;;;39.40;35.13;;;;;;;;;;6154498;28;20238;-75
2022/03/25 10:12:20;;;;;;;38.00;32.97;;;;;;;;;;6155044;28;20234;-73
2022/03/25 10:15:42;;;;;;;39.23;33.80;;;;;;;;;;6156193;28;20857;-73
2022/03/25 10:19:03;;;;;;;39.50;35.40;;;;;;;;;;6155723;28;20226;-73
2022/03/25 10:22:24;;;;;;;34.63;30.60;;;;;;;;;;6158947;28;20506;-73
2022/03/25 10:25:47;;;;;;;29.30;26.17;;;;;;;;;;6156620;28;20235;-76
2022/03/25 10:29:21;;;;;;;35.03;29.70;;;;;;;;;;6152501;28;20223;-74
2022/03/25 10:32:43;;;;;;;26.48;23.65;;;;;;;;;;6156114;28;20286;-72
2022/03/25 10:36:07;;;;;;;33.90;26.60;;;;;;;;;;6142659;28;20222;-74
2022/03/25 10:39:29;;;;;;;31.52;28.25;;;;;;;;;;6150716;28;20753;-74
2022/03/25 10:43:06;;;;;;;31.67;26.85;;;;;;;;;;6147125;28;20235;-73
2022/03/25 10:46:31;;;;;;;30.70;24.80;;;;;;;;;;6151425;28;20238;-71
2022/03/25 10:49:54;;;;;;;33.33;27.35;;;;;;;;;;6149209;28;20251;-72
2022/03/25 10:53:15;;;;;;;33.17;27.33;;;;;;;;;;6152600;28;20246;-73
2022/03/25 10:56:45;;;;;;;33.22;26.23;;;;;;;;;;6128247;28;20266;-73
2022/03/25 11:00:07;;;;;;;31.85;25.58;;;;;;;;;;6153669;28;20337;-72
2022/03/25 11:03:28;;;;;;;35.65;29.70;;;;;;;;;;6156642;28;20234;-74
2022/03/25 11:06:51;;;;;;;31.05;27.70;;;;;;;;;;6154542;28;20231;-71
2022/03/25 11:10:13;;;;;;;26.85;24.10;;;;;;;;;;6156835;28;20235;-73
2022/03/25 11:13:34;;;;;;;29.77;26.80;;;;;;;;;;6160991;28;20609;-73
2022/03/25 11:16:56;;;;;;;28.83;25.83;;;;;;;;;;6161361;28;20620;-73
2022/03/25 11:20:21;;;;;;;28.73;24.20;;;;;;;;;;6156128;28;20230;-72
2022/03/25 11:23:51;;;;;;;22.98;20.65;;;;;;;;;;6156186;28;20234;-73
2022/03/25 11:27:17;;;;;;;23.70;21.33;;;;;;;;;;6152061;28;20230;-73
2022/03/25 11:30:38;;;;;;;30.27;27.17;;;;;;;;;;6147183;28;20238;-73
2022/03/25 11:34:09;;;;;;;28.30;25.30;;;;;;;;;;6155549;28;20223;-73
2022/03/25 11:37:31;;;;;;;27.38;24.50;;;;;;;;;;6160580;28;20229;-73
2022/03/25 11:40:54;;;;;;;31.70;25.90;;;;;;;;;;6163930;28;20242;-73
2022/03/25 11:44:19;;;;;;;25.55;23.25;;;;;;;;;;6165008;28;20231;-73
2022/03/25 11:47:40;;;;;;;27.60;24.60;;;;;;;;;;6158642;28;20222;-74
2022/03/25 11:51:02;;;;;;;28.05;24.35;;;;;;;;;;6151059;28;20231;-72
2022/03/25 11:54:38;;;;;;;29.23;26.42;;;;;;;;;;6158527;28;20242;-73
2022/03/25 11:58:16;;;;;;;26.45;23.88;;;;;;;;;;6165320;28;20710;-74
2022/03/25 12:01:36;;;;;;;28.75;25.63;;;;;;;;;;6162833;28;20227;-72
2022/03/25 12:04:58;;;;;;;27.67;24.98;;;;;;;;;;6168064;28;20654;-71
2022/03/25 12:08:27;;;;;;;26.67;24.00;;;;;;;;;;6168929;28;20226;-73
2022/03/25 12:11:51;;;;;;;26.73;21.73;;;;;;;;;;6163528;28;20234;-73
2022/03/25 12:15:13;;;;;;;24.73;22.02;;;;;;;;;;6166959;28;20267;-73
2022/03/25 12:18:44;;;;;;;26.92;22.42;;;;;;;;;;6168565;28;20234;-73
2022/03/25 12:22:29;;;;;;;21.00;18.85;;;;;;;;;;6164027;28;20600;-72
2022/03/25 12:25:50;;;;;;;22.10;19.73;;;;;;;;;;6167509;28;20226;-73
2022/03/25 12:29:11;;;;;;;23.05;20.65;;;;;;;;;;6168514;28;20223;-73
2022/03/25 12:32:35;;;;;;;24.67;21.90;;;;;;;;;;6167163;28;20238;-73
2022/03/25 12:35:58;;;;;;;23.17;20.40;;;;;;;;;;6165958;28;20230;-73
2022/03/25 12:39:19;;;;;;;27.33;22.63;;;;;;;;;;6163277;28;20535;-72
2022/03/25 12:42:40;;;;;;;21.10;19.15;;;;;;;;;;6166413;28;20309;-72
2022/03/25 12:46:09;;;;;;;21.88;19.27;;;;;;;;;;6167437;28;20230;-73
2022/03/25 12:49:32;;;;;;;21.27;18.77;;;;;;;;;;6170142;28;20297;-72
2022/03/25 12:53:00;;;;;;;19.92;17.77;;;;;;;;;;6169271;28;20230;-73
2022/03/25 12:56:21;;;;;;;32.35;29.17;;;;;;;;;;6160468;28;20234;-74
2022/03/25 12:59:42;;;;;;;24.40;20.50;;;;;;;;;;6166933;28;20644;-73
2022/03/25 13:03:03;;;;;;;20.67;18.27;;;;;;;;;;6167241;28;20254;-73
2022/03/25 13:06:26;;;;;;;20.92;18.77;;;;;;;;;;6167009;28;20234;-72
2022/03/25 13:09:54;;;;;;;20.83;18.70;;;;;;;;;;6167418;28;20588;-73
2022/03/25 13:13:15;;;;;;;22.02;17.50;;;;;;;;;;6168806;28;20231;-73
2022/03/25 13:16:35;;;;;;;18.27;16.58;;;;;;;;;;6164950;28;20324;-73
2022/03/25 13:19:57;;;;;;;18.98;17.10;;;;;;;;;;6166098;28;20258;-73
2022/03/25 13:23:22;;;;;;;18.75;15.82;;;;;;;;;;6173009;28;20237;-73
2022/03/25 13:26:43;;;;;;;19.35;17.35;;;;;;;;;;6170668;28;20231;-73
2022/03/25 13:30:05;;;;;;;17.88;16.20;;;;;;;;;;6168723;28;20231;-72
2022/03/25 13:33:28;;;;;;;24.40;19.70;;;;;;;;;;6171809;28;20316;-73
2022/03/25 13:36:52;;;;;;;19.30;16.50;;;;;;;;;;6164915;28;20234;-73
2022/03/25 13:40:32;;;;;;;16.70;14.70;;;;;;;;;;6166432;28;20230;-72
2022/03/25 13:43:55;;;;;;;17.45;15.65;;;;;;;;;;6160821;28;20238;-74
2022/03/25 13:47:16;;;;;;;20.13;18.08;;;;;;;;;;6167050;28;20234;-72
2022/03/25 13:50:47;;;;;;;23.88;18.25;;;;;;;;;;6167417;28;20738;-73
2022/03/25 13:54:10;;;;;;;16.40;14.73;;;;;;;;;;6167363;28;20616;-72
2022/03/25 13:57:32;;;;;;;16.95;15.15;;;;;;;;;;6163359;28;20234;-72
2022/03/25 14:00:54;;;;;;;19.70;15.75;;;;;;;;;;6157112;28;20646;-73
2022/03/25 14:04:16;;;;;;;17.42;15.63;;;;;;;;;;6172231;28;20230;-73
2022/03/25 14:07:38;;;;;;;19.67;16.15;;;;;;;;;;6164544;28;20309;-74
2022/03/25 14:10:59;;;;;;;16.92;15.05;;;;;;;;;;6166229;28;20230;-71
2022/03/25 14:14:27;;;;;;;17.35;15.68;;;;;;;;;;6158584;28;20337;-73
2022/03/25 14:17:51;;;;;;;17.70;15.68;;;;;;;;;;6166203;28;20227;-73
2022/03/25 14:21:12;;;;;;;19.13;17.17;;;;;;;;;;6166817;28;20230;-74
2022/03/25 14:24:34;;;;;;;18.55;16.65;;;;;;;;;;6161012;28;20234;-72
2022/03/25 14:27:59;;;;;;;19.02;17.20;;;;;;;;;;6166791;28;20226;-73
2022/03/25 14:31:21;;;;;;;26.40;23.65;;;;;;;;;;6164848;28;20246;-72
2022/03/25 14:34:42;;;;;;;22.67;20.45;;;;;;;;;;6174345;28;20635;-74
2022/03/25 14:38:03;;;;;;;22.88;20.05;;;;;;;;;;6166801;28;20222;-73
2022/03/25 14:41:27;;;;;;;26.05;23.20;;;;;;;;;;6168925;28;20502;-72
2022/03/25 14:44:50;;;;;;;35.33;31.75;;;;;;;;;;6176181;28;20587;-73
2022/03/25 14:48:12;;;;;;;31.95;29.02;;;;;;;;;;6169110;28;20613;-71
2022/03/25 14:51:33;;;;;;;24.52;21.13;;;;;;;;;;6167895;28;20258;-71
2022/03/25 14:54:54;;;;;;;15.32;13.02;;;;;;;;;;6165580;28;20234;-73
2022/03/25 14:58:15;;;;;;;17.17;14.77;;;;;;;;;;6161878;28;20234;-72
2022/03/25 15:01:36;;;;;;;18.38;16.40;;;;;;;;;;6152863;28;20243;-72
2022/03/25 15:05:01;;;;;;;20.05;17.83;;;;;;;;;;6165828;28;20231;-73
2022/03/25 15:08:22;;;;;;;21.27;16.55;;;;;;;;;;6170193;28;20238;-72
2022/03/25 15:11:43;;;;;;;18.42;14.27;;;;;;;;;;6167112;28;20258;-72
2022/03/25 15:15:04;;;;;;;16.60;14.05;;;;;;;;;;6153114;28;20239;-73
2022/03/25 15:18:26;;;;;;;19.95;18.05;;;;;;;;;;6168793;28;20246;-74
2022/03/25 15:21:48;;;;;;;20.98;13.90;;;;;;;;;;6171009;28;20226;-72
2022/03/25 15:25:11;;;;;;;14.95;12.85;;;;;;;;;;6171395;28;20321;-73
2022/03/25 15:28:32;;;;;;;19.58;17.45;;;;;;;;;;6171163;28;20463;-73
2022/03/25 15:35:32;;;;;;;19.52;17.23;;;;;;;;;;6167016;28;20371;-73
2022/03/25 15:38:54;;;;;;;21.63;15.90;;;;;;;;;;6173928;28;20267;-72
2022/03/25 15:42:15;;;;;;;21.30;18.10;;;;;;;;;;6170782;28;20305;-72
2022/03/25 15:45:36;;;;;;;17.50;14.45;;;;;;;;;;6164521;28;20521;-72
2022/03/25 15:48:57;;;;;;;21.80;18.30;;;;;;;;;;6170801;28;20626;-73
2022/03/25 15:52:18;;;;;;;17.08;15.27;;;;;;;;;;6168949;28;20239;-73
2022/03/25 15:55:41;;;;;;;34.25;30.70;;;;;;;;;;6164715;28;20227;-73
2022/03/25 15:59:02;;;;;;;37.22;31.35;;;;;;;;;;6150250;28;20802;-73
2022/03/25 16:02:23;;;;;;;30.33;18.77;;;;;;;;;;6154198;28;20518;-72
2022/03/25 16:05:45;;;;;;;23.92;20.55;;;;;;;;;;6165344;28;20230;-71
2022/03/25 16:09:06;;;;;;;27.85;24.42;;;;;;;;;;6166183;28;20230;-73
2022/03/25 16:12:28;;;;;;;19.38;17.35;;;;;;;;;;6162940;28;20262;-71
2022/03/25 16:15:49;;;;;;;19.08;16.80;;;;;;;;;;6168716;28;20606;-71
2022/03/25 16:19:10;;;;;;;19.17;16.58;;;;;;;;;;6164185;28;20231;-73
2022/03/25 16:22:31;;;;;;;16.00;14.35;;;;;;;;;;6167453;28;20235;-72
2022/03/25 16:25:52;;;;;;;19.63;16.02;;;;;;;;;;6167346;28;20250;-72
2022/03/25 16:29:17;;;;;;;15.57;13.90;;;;;;;;;;6164864;28;20317;-73
2022/03/25 16:32:38;;;;;;;24.55;20.38;;;;;;;;;;6169034;28;20234;-73
2022/03/25 16:35:59;;;;;;;19.45;15.25;;;;;;;;;;6154053;28;20231;-73
2022/03/25 16:39:20;;;;;;;21.02;17.48;;;;;;;;;;6173649;28;20246;-73
2022/03/25 16:42:41;;;;;;;18.98;13.98;;;;;;;;;;6165207;28;20223;-73
2022/03/25 16:46:03;;;;;;;21.35;16.63;;;;;;;;;;6163008;28;20269;-72
2022/03/25 16:49:24;;;;;;;19.23;16.88;;;;;;;;;;6167243;28;20234;-73
2022/03/25 16:52:45;;;;;;;23.65;21.15;;;;;;;;;;6171163;28;20677;-74
2022/03/25 16:56:07;;;;;;;21.85;15.68;;;;;;;;;;6168072;28;20246;-72
2022/03/25 16:59:28;;;;;;;24.15;21.05;;;;;;;;;;6169237;28;20242;-74
2022/03/25 17:02:50;;;;;;;22.02;16.42;;;;;;;;;;6170339;28;20644;-73
2022/03/25 17:06:11;;;;;;;23.50;16.88;;;;;;;;;;6166156;28;20223;-73
2022/03/25 17:09:35;;;;;;;22.45;18.58;;;;;;;;;;6166651;28;20230;-73
2022/03/25 17:12:56;;;;;;;22.55;17.45;;;;;;;;;;6168732;28;20238;-73
2022/03/25 17:16:16;;;;;;;22.05;16.77;;;;;;;;;;6167134;28;20878;-73
2022/03/25 17:19:39;;;;;;;18.48;16.42;;;;;;;;;;6162168;28;20262;-72
2022/03/25 17:23:03;;;;;;;27.52;19.83;;;;;;;;;;6159101;28;20226;-73
2022/03/25 17:26:24;;;;;;;25.48;22.33;;;;;;;;;;6144516;28;20230;-74
2022/03/25 17:29:44;;;;;;;33.70;25.77;;;;;;;;;;6159743;28;20636;-72
2022/03/25 17:33:06;;;;;;;30.08;24.58;;;;;;;;;;6168041;28;20258;-73
2022/03/25 17:36:29;;;;;;;29.13;24.63;;;;;;;;;;6159685;28;20318;-74
2022/03/25 17:39:50;;;;;;;30.00;23.13;;;;;;;;;;6165612;28;20239;-76
2022/03/25 17:43:11;;;;;;;29.95;25.05;;;;;;;;;;6165635;28;20695;-75
2022/03/25 17:46:32;;;;;;;28.50;24.20;;;;;;;;;;6164274;28;20230;-74
2022/03/25 17:49:52;;;;;;;32.63;27.77;;;;;;;;;;6165607;28;20529;-75
2022/03/25 17:53:15;;;;;;;42.22;32.75;;;;;;;;;;6177532;28;20226;-72
2022/03/25 17:56:36;;;;;;;38.95;35.05;;;;;;;;;;6166761;28;20309;-75
2022/03/25 17:59:57;;;;;;;41.78;37.10;;;;;;;;;;6164563;28;20230;-73
2022/03/25 18:03:18;;;;;;;58.05;51.65;;;;;;;;;;6158254;28;20238;-74
2022/03/25 18:06:40;;;;;;;55.47;48.15;;;;;;;;;;6162302;28;20242;-73
2022/03/25 18:10:02;;;;;;;68.83;61.20;;;;;;;;;;6160315;28;20234;-73
2022/03/25 18:13:23;;;;;;;39.72;32.97;;;;;;;;;;6161146;28;20256;-74
2022/03/25 18:16:44;;;;;;;38.47;33.20;;;;;;;;;;6168796;28;20309;-72
2022/03/25 18:20:06;;;;;;;40.83;31.60;;;;;;;;;;6162829;28;20226;-73
2022/03/25 18:23:27;;;;;;;35.43;31.53;;;;;;;;;;6165744;28;20238;-76
2022/03/25 18:26:50;;;;;;;42.17;32.73;;;;;;;;;;6167099;28;20254;-73
2022/03/25 18:30:13;;;;;;;35.37;31.67;;;;;;;;;;6168826;28;20230;-75
2022/03/25 18:33:34;;;;;;;37.50;32.60;;;;;;;;;;6163686;28;20261;-74
2022/03/25 18:36:55;;;;;;;40.87;36.40;;;;;;;;;;6165784;28;20226;-75
2022/03/25 18:40:17;;;;;;;42.27;37.53;;;;;;;;;;6167338;28;20309;-74
2022/03/25 18:43:39;;;;;;;42.20;37.57;;;;;;;;;;6159224;28;20230;-77
2022/03/25 18:47:00;;;;;;;42.97;38.40;;;;;;;;;;6167134;28;20230;-74
2022/03/25 18:50:21;;;;;;;47.83;42.33;;;;;;;;;;6148606;28;20235;-75
2022/03/25 18:53:43;;;;;;;48.07;41.70;;;;;;;;;;6163208;28;20234;-76
2022/03/25 18:57:05;;;;;;;49.50;42.53;;;;;;;;;;6161337;28;20493;-74
2022/03/25 19:00:28;;;;;;;64.63;57.50;;;;;;;;;;6144441;28;20234;-72
2022/03/25 19:03:48;;;;;;;54.17;48.23;;;;;;;;;;6150361;28;20226;-73
2022/03/25 19:07:09;;;;;;;63.13;56.30;;;;;;;;;;6154399;28;20250;-73
2022/03/25 19:10:30;;;;;;;50.30;45.00;;;;;;;;;;6158014;28;20223;-74
2022/03/25 19:13:51;;;;;;;57.47;51.13;;;;;;;;;;6158683;28;20235;-73
2022/03/25 19:17:13;;;;;;;53.07;47.53;;;;;;;;;;6167170;28;20516;-74
2022/03/25 19:20:35;;;;;;;56.23;50.10;;;;;;;;;;6152424;28;20226;-74
2022/03/25 19:23:56;;;;;;;50.83;43.77;;;;;;;;;;6161195;28;20238;-73
2022/03/25 19:27:16;;;;;;;48.73;43.53;;;;;;;;;;6157384;28;20239;-73
2022/03/25 19:30:38;;;;;;;47.77;42.77;;;;;;;;;;6156853;28;20226;-74
2022/03/25 19:34:01;;;;;;;51.60;45.07;;;;;;;;;;6153812;28;20639;-73
2022/03/25 19:37:24;;;;;;;61.43;47.87;;;;;;;;;;6148346;28;20235;-72
2022/03/25 19:40:45;;;;;;;51.37;45.20;;;;;;;;;;6149496;28;20785;-75
2022/03/25 19:44:06;;;;;;;54.23;46.37;;;;;;;;;;6140484;28;20230;-74